Time;durP1;ratioP1;P1;durP2;ratioP2;P2;SDS_P1;SDS_P2;PMS_P1;PMS_P2;Temp;Humidity;BMP_temperature;BMP_pressure;BME280_temperature;BME280_humidity;BME280_pressure;Samples;Min_cycle;Max_cycle;Signal;HPM_P1;HPM_P2
2022/09/24 00:00:30;;;;;;;45.03;34.42;;;;;;;-146.58;100.00;69501.63;4988940;28;20073;-64
2022/09/24 00:02:55;;;;;;;46.17;36.25;;;;;;;-146.58;100.00;69501.63;4990553;28;20040;-64
2022/09/24 00:05:21;;;;;;;40.97;36.58;;;;;;;-146.58;100.00;69501.63;4989780;28;20042;-64
2022/09/24 00:07:46;;;;;;;45.60;40.95;;;;;;;-146.58;100.00;69501.63;4990145;28;20037;-63
2022/09/24 00:10:11;;;;;;;44.88;36.97;;;;;;;-146.58;100.00;69501.63;4989614;28;20050;-63
2022/09/24 00:12:37;;;;;;;45.08;37.10;;;;;;;-146.58;100.00;69501.63;4991367;28;20026;-63
2022/09/24 00:15:03;;;;;;;51.92;39.80;;;;;;;-146.58;100.00;69501.63;4989241;28;20034;-63
2022/09/24 00:17:29;;;;;;;44.28;36.58;;;;;;;-146.58;100.00;69501.63;4991034;28;20081;-63
2022/09/24 00:19:54;;;;;;;47.47;37.92;;;;;;;-146.58;100.00;69501.63;4989868;28;20449;-63
2022/09/24 00:22:19;;;;;;;46.63;38.08;;;;;;;-146.58;100.00;69501.63;4990598;28;20034;-63
2022/09/24 00:27:28;;;;;;;36.80;32.90;;;;;;;-146.58;100.00;69501.63;4995251;28;20088;-63
2022/09/24 00:29:54;;;;;;;36.05;31.55;;;;;;;-146.58;100.00;69501.63;4993377;28;20042;-63
2022/09/24 00:32:22;;;;;;;43.42;34.63;;;;;;;-146.58;100.00;69501.63;4994409;28;20047;-64
2022/09/24 00:34:52;;;;;;;38.83;32.15;;;;;;;-146.58;100.00;69501.63;4993533;28;20042;-64
2022/09/24 00:37:20;;;;;;;34.90;30.90;;;;;;;-146.58;100.00;69501.63;4994435;28;20081;-63
2022/09/24 00:39:45;;;;;;;38.20;32.17;;;;;;;-146.58;100.00;69501.63;4993583;28;20043;-63
2022/09/24 00:42:12;;;;;;;33.47;29.60;;;;;;;-146.58;100.00;69501.63;4994550;28;20033;-63
2022/09/24 00:44:40;;;;;;;31.63;28.05;;;;;;;-146.58;100.00;69501.63;4992913;28;20038;-63
2022/09/24 00:47:19;;;;;;;32.30;27.42;;;;;;;-146.58;100.00;69501.63;4994640;28;20030;-64
2022/09/24 00:49:47;;;;;;;29.77;26.27;;;;;;;-146.58;100.00;69501.63;4993346;28;20049;-63
2022/09/24 00:52:13;;;;;;;31.35;28.08;;;;;;;-146.58;100.00;69501.63;4994058;28;20026;-63
2022/09/24 00:54:39;;;;;;;30.33;27.13;;;;;;;-146.58;100.00;69501.63;4993319;28;20211;-64
2022/09/24 00:57:06;;;;;;;31.65;26.88;;;;;;;-146.58;100.00;69501.63;4994487;28;20023;-63
2022/09/24 00:59:32;;;;;;;36.63;26.63;;;;;;;-146.58;100.00;69501.63;4992802;28;20101;-63
2022/09/24 01:01:57;;;;;;;30.67;27.35;;;;;;;-146.58;100.00;69501.63;4994284;28;20030;-63
2022/09/24 01:04:25;;;;;;;31.15;27.77;;;;;;;-146.58;100.00;69501.63;4993062;28;20379;-63
2022/09/24 01:06:52;;;;;;;30.77;25.13;;;;;;;-146.58;100.00;69501.63;4993979;28;20026;-63
2022/09/24 01:09:20;;;;;;;26.98;24.02;;;;;;;-146.58;100.00;69501.63;4992764;28;20046;-63
2022/09/24 01:11:45;;;;;;;;;;;;;;;-146.58;100.00;69501.63;4994974;28;20026;-63
2022/09/24 01:14:33;;;;;;;27.33;24.13;;;;;;;-146.58;100.00;69501.63;4992490;28;19980;-63
2022/09/24 01:17:10;;;;;;;27.38;21.17;;;;;;;-146.58;100.00;69501.63;4992755;28;20525;-63
2022/09/24 01:20:20;;;;;;;27.63;22.02;;;;;;;-146.58;100.00;69501.63;4992682;28;20075;-63
2022/09/24 01:23:02;;;;;;;24.63;20.30;;;;;;;-146.58;100.00;69501.63;4994016;28;20030;-63
2022/09/24 01:25:42;;;;;;;26.30;22.38;;;;;;;-146.58;100.00;69501.63;4992109;28;20046;-63
2022/09/24 01:28:32;;;;;;;25.00;21.92;;;;;;;-146.58;100.00;69501.63;4992842;28;20065;-63
2022/09/24 01:31:04;;;;;;;22.23;19.92;;;;;;;-146.58;100.00;69501.63;4990961;28;20056;-63
2022/09/24 01:33:33;;;;;;;25.88;20.42;;;;;;;-146.58;100.00;69501.63;4991921;28;20058;-64
2022/09/24 01:36:07;;;;;;;28.08;22.42;;;;;;;-146.58;100.00;69501.63;4991827;28;20054;-64
2022/09/24 01:38:37;;;;;;;26.50;17.98;;;;;;;-146.58;100.00;69501.63;4992790;28;20108;-64
2022/09/24 01:41:04;;;;;;;27.58;22.30;;;;;;;-146.58;100.00;69501.63;4994047;28;20030;-64
2022/09/24 01:43:31;;;;;;;22.90;18.92;;;;;;;-146.58;100.00;69501.63;4992397;28;20092;-63
2022/09/24 01:45:59;;;;;;;24.02;21.25;;;;;;;-146.58;100.00;69501.63;4993896;28;20036;-64
2022/09/24 01:48:26;;;;;;;22.30;18.70;;;;;;;-146.58;100.00;69501.63;4992028;28;20398;-63
2022/09/24 01:51:19;;;;;;;23.90;20.40;;;;;;;-146.58;100.00;69501.63;4993859;28;20359;-64
2022/09/24 01:53:48;;;;;;;25.60;20.98;;;;;;;-146.58;100.00;69501.63;5007399;28;20469;-63
2022/09/24 01:56:19;;;;;;;25.08;21.70;;;;;;;-146.58;100.00;69501.63;4993556;28;20030;-63
2022/09/24 01:58:54;;;;;;;23.25;19.67;;;;;;;-146.58;100.00;69501.63;4991970;28;20185;-64
2022/09/24 02:01:29;;;;;;;25.05;19.88;;;;;;;-146.58;100.00;69501.63;4993745;28;20027;-64
2022/09/24 02:04:04;;;;;;;26.02;21.58;;;;;;;-146.58;100.00;69501.63;4992293;28;20506;-64
2022/09/24 02:06:39;;;;;;;26.67;21.30;;;;;;;-146.58;100.00;69501.63;4993429;28;20058;-65
2022/09/24 02:09:05;;;;;;;31.77;21.38;;;;;;;-146.58;100.00;69501.63;4991796;28;20030;-65
2022/09/24 02:11:34;;;;;;;23.27;19.70;;;;;;;-146.58;100.00;69501.63;4993440;28;20505;-64
2022/09/24 02:14:12;;;;;;;25.83;18.83;;;;;;;-146.58;100.00;69501.63;4990778;28;20117;-64
2022/09/24 02:16:44;;;;;;;29.08;21.60;;;;;;;-146.58;100.00;69501.63;4973526;28;20034;-64
2022/09/24 02:19:14;;;;;;;27.50;22.77;;;;;;;-146.58;100.00;69501.63;4972148;28;20035;-64
2022/09/24 02:21:42;;;;;;;24.17;21.63;;;;;;;-146.58;100.00;69501.63;4973102;28;20019;-64
2022/09/24 02:24:13;;;;;;;25.98;22.40;;;;;;;-146.58;100.00;69501.63;4976316;28;20038;-64
2022/09/24 02:26:39;;;;;;;24.88;21.05;;;;;;;-146.58;100.00;69501.63;4991879;28;20054;-64
2022/09/24 02:29:04;;;;;;;27.40;22.75;;;;;;;-146.58;100.00;69501.63;4991030;28;20536;-65
2022/09/24 02:31:33;;;;;;;26.85;22.48;;;;;;;-146.58;100.00;69501.63;4992882;28;20141;-65
2022/09/24 02:34:21;;;;;;;23.15;20.67;;;;;;;-146.58;100.00;69501.63;4991479;28;20497;-65
2022/09/24 02:36:53;;;;;;;24.55;21.25;;;;;;;-146.58;100.00;69501.63;4992707;28;20370;-65
2022/09/24 02:39:19;;;;;;;27.48;23.45;;;;;;;-146.58;100.00;69501.63;4990462;28;20170;-65
2022/09/24 02:41:47;;;;;;;29.67;23.27;;;;;;;-146.58;100.00;69501.63;4991353;28;20030;-65
2022/09/24 02:44:16;;;;;;;28.17;22.73;;;;;;;-146.58;100.00;69501.63;4989647;28;20038;-65
2022/09/24 02:46:42;;;;;;;28.38;24.88;;;;;;;-146.58;100.00;69501.63;4991863;28;20034;-65
2022/09/24 02:49:09;;;;;;;27.45;23.90;;;;;;;-146.58;100.00;69501.63;4990907;28;20049;-65
2022/09/24 02:51:35;;;;;;;30.60;25.08;;;;;;;-146.58;100.00;69501.63;4992423;28;20555;-65
2022/09/24 02:54:00;;;;;;;29.98;24.38;;;;;;;-146.58;100.00;69501.63;4991055;28;20128;-64
2022/09/24 02:56:26;;;;;;;29.75;24.38;;;;;;;-146.58;100.00;69501.63;4992634;28;20085;-62
2022/09/24 02:58:52;;;;;;;32.65;25.73;;;;;;;-146.58;100.00;69501.63;4991092;28;20046;-62
2022/09/24 03:01:18;;;;;;;27.58;24.63;;;;;;;-146.58;100.00;69501.63;4992366;28;20080;-62
2022/09/24 03:03:44;;;;;;;33.40;25.58;;;;;;;-146.58;100.00;69501.63;4990614;28;20049;-60
2022/09/24 03:06:11;;;;;;;31.88;24.38;;;;;;;-146.58;100.00;69501.63;4991815;28;20102;-61
2022/09/24 03:08:36;;;;;;;36.47;25.23;;;;;;;-146.58;100.00;69501.63;4991258;28;20421;-62
2022/09/24 03:11:02;;;;;;;35.95;25.10;;;;;;;-146.58;100.00;69501.63;4992167;28;20018;-62
2022/09/24 03:13:27;;;;;;;35.72;28.80;;;;;;;-146.58;100.00;69501.63;4990196;28;20497;-62
2022/09/24 03:15:53;;;;;;;32.97;27.67;;;;;;;-146.58;100.00;69501.63;4991458;28;20025;-62
2022/09/24 03:18:18;;;;;;;33.33;26.70;;;;;;;-146.58;100.00;69501.63;4992125;28;20110;-62
2022/09/24 03:20:53;;;;;;;40.88;28.60;;;;;;;-146.58;100.00;69501.63;4989472;28;20038;-62
2022/09/24 03:23:18;;;;;;;37.50;27.10;;;;;;;-146.58;100.00;69501.63;4991835;28;20041;-62
2022/09/24 03:25:43;;;;;;;39.47;26.92;;;;;;;-146.58;100.00;69501.63;4989751;28;20042;-62
2022/09/24 03:28:09;;;;;;;39.25;30.90;;;;;;;-146.58;100.00;69501.63;4991656;28;20030;-62
2022/09/24 03:33:18;;;;;;;38.78;28.25;;;;;;;-146.58;100.00;69501.63;4992063;28;20115;-62
2022/09/24 03:35:43;;;;;;;36.35;27.30;;;;;;;-146.58;100.00;69501.63;4989369;28;20462;-63
2022/09/24 03:38:09;;;;;;;42.15;29.08;;;;;;;-146.58;100.00;69501.63;4991786;28;20051;-63
2022/09/24 03:40:34;;;;;;;38.13;29.67;;;;;;;-146.58;100.00;69501.63;4990182;28;20046;-63
2022/09/24 03:42:59;;;;;;;41.78;29.33;;;;;;;-146.58;100.00;69501.63;4991255;28;20026;-63
2022/09/24 03:45:25;;;;;;;41.47;27.55;;;;;;;-146.58;100.00;69501.63;4990306;28;20057;-63
2022/09/24 03:47:50;;;;;;;43.15;28.83;;;;;;;-146.58;100.00;69501.63;4991899;28;20470;-61
2022/09/24 03:50:16;;;;;;;44.35;30.85;;;;;;;-146.58;100.00;69501.63;4989928;28;20097;-61
2022/09/24 03:52:41;;;;;;;38.53;31.63;;;;;;;-146.58;100.00;69501.63;4991015;28;20042;-61
2022/09/24 03:55:07;;;;;;;42.08;30.85;;;;;;;-146.58;100.00;69501.63;4989810;28;20038;-61
2022/09/24 03:57:32;;;;;;;43.15;30.77;;;;;;;-146.58;100.00;69501.63;4991195;28;20036;-61
2022/09/24 03:59:58;;;;;;;41.50;28.40;;;;;;;-146.58;100.00;69501.63;4989672;28;20038;-61
2022/09/24 04:02:24;;;;;;;35.88;28.90;;;;;;;-146.58;100.00;69501.63;4991677;28;20030;-61
2022/09/24 04:04:49;;;;;;;39.67;29.73;;;;;;;-146.58;100.00;69501.63;4990124;28;20063;-61
2022/09/24 04:07:14;;;;;;;44.25;31.45;;;;;;;-146.58;100.00;69501.63;4991113;28;20037;-60
2022/09/24 04:09:40;;;;;;;45.60;31.38;;;;;;;-146.58;100.00;69501.63;4990356;28;20046;-61
2022/09/24 04:12:05;;;;;;;44.75;31.40;;;;;;;-146.58;100.00;69501.63;4991307;28;20421;-61
2022/09/24 04:14:31;;;;;;;39.75;29.70;;;;;;;-146.58;100.00;69501.63;4990188;28;20038;-61
2022/09/24 04:16:57;;;;;;;39.20;30.25;;;;;;;-146.58;100.00;69501.63;4990639;28;20486;-67
2022/09/24 04:19:23;;;;;;;42.13;33.22;;;;;;;-146.58;100.00;69501.63;4988850;28;20490;-64
2022/09/24 04:21:48;;;;;;;41.20;31.85;;;;;;;-146.58;100.00;69501.63;4991269;28;20049;-64
2022/09/24 04:24:13;;;;;;;36.88;28.88;;;;;;;-146.58;100.00;69501.63;4989409;28;20498;-60
2022/09/24 04:26:39;;;;;;;39.67;30.23;;;;;;;-146.58;100.00;69501.63;4990829;28;20022;-65
2022/09/24 04:29:06;;;;;;;37.42;29.77;;;;;;;-146.58;100.00;69501.63;4995844;28;20029;-64
2022/09/24 04:31:32;;;;;;;36.22;27.15;;;;;;;-146.58;100.00;69501.63;5009374;28;20046;-64
2022/09/24 04:33:57;;;;;;;34.88;29.50;;;;;;;-146.58;100.00;69501.63;4989719;28;20050;-64
2022/09/24 04:36:23;;;;;;;37.75;26.63;;;;;;;-146.58;100.00;69501.63;4991584;28;20502;-65
2022/09/24 04:38:49;;;;;;;36.28;29.25;;;;;;;-146.58;100.00;69501.63;4990193;28;20034;-64
2022/09/24 04:41:17;;;;;;;38.10;29.55;;;;;;;-146.58;100.00;69501.63;4990705;28;20117;-63
2022/09/24 04:43:45;;;;;;;37.67;27.35;;;;;;;-146.58;100.00;69501.63;4988254;28;20039;-63
2022/09/24 04:46:11;;;;;;;37.13;26.70;;;;;;;-146.58;100.00;69501.63;4988911;28;20029;-63
2022/09/24 04:48:37;;;;;;;42.55;29.85;;;;;;;-146.58;100.00;69501.63;4988051;28;20034;-63
2022/09/24 04:51:04;;;;;;;37.88;31.35;;;;;;;-146.58;100.00;69501.63;4990264;28;20026;-63
2022/09/24 04:53:31;;;;;;;37.40;30.05;;;;;;;-146.58;100.00;69501.63;4989827;28;20034;-64
2022/09/24 04:55:57;;;;;;;36.20;28.77;;;;;;;-146.58;100.00;69501.63;4988523;28;20014;-64
2022/09/24 04:58:22;;;;;;;41.75;29.88;;;;;;;-146.58;100.00;69501.63;4988789;28;20695;-63
2022/09/24 05:00:50;;;;;;;39.50;29.02;;;;;;;-146.58;100.00;69501.63;4990544;28;20038;-64
2022/09/24 05:03:15;;;;;;;36.95;28.92;;;;;;;-146.58;100.00;69501.63;4989207;28;20033;-64
2022/09/24 05:05:40;;;;;;;39.55;29.85;;;;;;;-146.58;100.00;69501.63;4988945;28;20375;-64
2022/09/24 05:08:06;;;;;;;37.22;30.13;;;;;;;-146.58;100.00;69501.63;4990378;28;20038;-64
2022/09/24 05:10:32;;;;;;;37.65;28.10;;;;;;;-146.58;100.00;69501.63;4987194;28;20624;-64
2022/09/24 05:12:57;;;;;;;37.75;28.38;;;;;;;-146.58;100.00;69501.63;4994084;28;20030;-64
2022/09/24 05:15:23;;;;;;;35.38;30.23;;;;;;;-146.58;100.00;69501.63;4992598;28;20034;-61
2022/09/24 05:17:48;;;;;;;40.10;31.02;;;;;;;-146.58;100.00;69501.63;4992302;28;20018;-60
2022/09/24 05:20:15;;;;;;;42.30;30.35;;;;;;;-146.58;100.00;69501.63;4992146;28;20399;-60
2022/09/24 05:22:42;;;;;;;35.28;28.52;;;;;;;-146.58;100.00;69501.63;4993925;28;20030;-61
2022/09/24 05:25:08;;;;;;;40.58;30.80;;;;;;;-146.58;100.00;69501.63;4989970;28;20093;-64
2022/09/24 05:27:34;;;;;;;39.20;30.52;;;;;;;-146.58;100.00;69501.63;4993690;28;20034;-63
2022/09/24 05:29:59;;;;;;;45.00;33.25;;;;;;;-146.58;100.00;69501.63;4991953;28;20583;-63
2022/09/24 05:32:26;;;;;;;44.05;30.85;;;;;;;-146.58;100.00;69501.63;4992618;28;20034;-63
2022/09/24 05:34:52;;;;;;;38.33;27.25;;;;;;;-146.58;100.00;69501.63;4991000;28;20054;-64
2022/09/24 05:37:17;;;;;;;43.08;31.77;;;;;;;-146.58;100.00;69501.63;4992463;28;20467;-64
2022/09/24 05:39:43;;;;;;;39.95;29.65;;;;;;;-146.58;100.00;69501.63;4990391;28;20038;-62
2022/09/24 05:42:12;;;;;;;39.03;30.85;;;;;;;-146.58;100.00;69501.63;4993076;28;20026;-63
2022/09/24 05:44:38;;;;;;;40.17;29.83;;;;;;;-146.58;100.00;69501.63;4989917;28;20452;-61
2022/09/24 05:47:03;;;;;;;40.03;31.52;;;;;;;-146.58;100.00;69501.63;4991721;28;20026;-61
2022/09/24 05:49:29;;;;;;;41.30;30.80;;;;;;;-146.58;100.00;69501.63;4991698;28;20038;-61
2022/09/24 05:51:54;;;;;;;43.78;30.77;;;;;;;-146.58;100.00;69501.63;4991954;28;20429;-61
2022/09/24 05:54:20;;;;;;;45.58;31.83;;;;;;;-146.58;100.00;69501.63;4990461;28;20042;-61
2022/09/24 05:56:46;;;;;;;43.35;33.72;;;;;;;-146.58;100.00;69501.63;4992552;28;20084;-61
2022/09/24 05:59:11;;;;;;;49.65;33.83;;;;;;;-146.58;100.00;69501.63;4990475;28;20042;-61
2022/09/24 06:01:37;;;;;;;44.45;33.90;;;;;;;-146.58;100.00;69501.63;4993024;28;20041;-61
2022/09/24 06:04:03;;;;;;;40.65;33.10;;;;;;;-146.58;100.00;69501.63;4991305;28;20038;-61
2022/09/24 06:06:28;;;;;;;45.53;31.27;;;;;;;-146.58;100.00;69501.63;4992737;28;20371;-61
2022/09/24 06:08:54;;;;;;;39.92;29.73;;;;;;;-146.58;100.00;69501.63;4991476;28;20540;-61
2022/09/24 06:11:24;;;;;;;41.72;32.33;;;;;;;-146.58;100.00;69501.63;4992629;28;20037;-61
2022/09/24 06:13:50;;;;;;;38.70;29.35;;;;;;;-146.58;100.00;69501.63;4991942;28;20421;-61
2022/09/24 06:16:16;;;;;;;44.95;32.88;;;;;;;-146.58;100.00;69501.63;4992908;28;20018;-61
2022/09/24 06:18:43;;;;;;;37.47;30.23;;;;;;;-146.58;100.00;69501.63;4991628;28;20081;-61
2022/09/24 06:21:14;;;;;;;39.10;28.83;;;;;;;-146.58;100.00;69501.63;4992192;28;20026;-62
2022/09/24 06:23:41;;;;;;;38.97;30.42;;;;;;;-146.58;100.00;69501.63;4991236;28;20543;-61
2022/09/24 06:26:10;;;;;;;37.70;31.17;;;;;;;-146.58;100.00;69501.63;4992481;28;20026;-61
2022/09/24 06:28:39;;;;;;;38.78;32.20;;;;;;;-146.58;100.00;69501.63;4991314;28;20034;-61
2022/09/24 06:31:05;;;;;;;43.85;30.60;;;;;;;-146.58;100.00;69501.63;4992409;28;20042;-62
2022/09/24 06:33:31;;;;;;;38.60;29.63;;;;;;;-146.58;100.00;69501.63;4991136;28;20036;-61
2022/09/24 06:36:01;;;;;;;39.35;30.33;;;;;;;-146.58;100.00;69501.63;4993060;28;20029;-61
2022/09/24 06:38:27;;;;;;;40.65;31.77;;;;;;;-146.58;100.00;69501.63;4991437;28;20037;-61
2022/09/24 06:40:58;;;;;;;34.95;28.98;;;;;;;-146.58;100.00;69501.63;4992530;28;20048;-61
2022/09/24 06:43:23;;;;;;;38.05;31.30;;;;;;;-146.58;100.00;69501.63;4991265;28;20026;-61
2022/09/24 06:45:49;;;;;;;41.42;31.90;;;;;;;-146.58;100.00;69501.63;4992518;28;20038;-61
2022/09/24 06:48:14;;;;;;;44.85;33.22;;;;;;;-146.58;100.00;69501.63;4992171;28;20026;-61
2022/09/24 06:50:42;;;;;;;43.45;32.47;;;;;;;-146.58;100.00;69501.63;4991109;28;20057;-61
2022/09/24 06:53:08;;;;;;;38.35;33.17;;;;;;;-146.58;100.00;69501.63;4992133;28;20113;-61
2022/09/24 06:55:35;;;;;;;43.80;34.10;;;;;;;-146.58;100.00;69501.63;4987605;28;20560;-61
2022/09/24 06:58:05;;;;;;;50.42;32.95;;;;;;;-146.58;100.00;69501.63;5000500;28;20049;-61
2022/09/24 07:00:31;;;;;;;39.08;33.25;;;;;;;-146.58;100.00;69501.63;4990529;28;20046;-61
2022/09/24 07:02:57;;;;;;;41.25;34.53;;;;;;;-146.58;100.00;69501.63;4991760;28;20030;-61
2022/09/24 07:05:22;;;;;;;48.10;36.70;;;;;;;-146.58;100.00;69501.63;4989384;28;20038;-61
2022/09/24 07:07:47;;;;;;;45.83;32.80;;;;;;;-146.58;100.00;69501.63;4991660;28;20022;-61
2022/09/24 07:10:13;;;;;;;40.88;33.42;;;;;;;-146.58;100.00;69501.63;4990074;28;20053;-61
2022/09/24 07:12:40;;;;;;;39.78;30.42;;;;;;;-146.58;100.00;69501.63;4991168;28;20026;-61
2022/09/24 07:15:06;;;;;;;34.65;29.33;;;;;;;-146.58;100.00;69501.63;4988948;28;20402;-61
2022/09/24 07:17:31;;;;;;;40.33;33.67;;;;;;;-146.58;100.00;69501.63;4991610;28;20034;-61
2022/09/24 07:19:57;;;;;;;42.50;31.30;;;;;;;-146.58;100.00;69501.63;4990478;28;20149;-61
2022/09/24 07:22:22;;;;;;;38.17;31.48;;;;;;;-146.58;100.00;69501.63;4991498;28;20027;-61
2022/09/24 07:24:47;;;;;;;40.78;30.92;;;;;;;-146.58;100.00;69501.63;4989922;28;20065;-61
2022/09/24 07:27:13;;;;;;;35.08;29.42;;;;;;;-146.58;100.00;69501.63;4991629;28;20029;-61
2022/09/24 07:29:39;;;;;;;33.38;28.92;;;;;;;-146.58;100.00;69501.63;4990586;28;20052;-61
2022/09/24 07:32:05;;;;;;;34.63;29.42;;;;;;;-146.58;100.00;69501.63;4991413;28;20408;-61
2022/09/24 07:34:30;;;;;;;42.00;30.58;;;;;;;-146.58;100.00;69501.63;4989638;28;20043;-61
2022/09/24 07:36:56;;;;;;;44.40;32.10;;;;;;;-146.58;100.00;69501.63;4991493;28;20433;-61
2022/09/24 07:39:22;;;;;;;34.53;28.58;;;;;;;-146.58;100.00;69501.63;4989756;28;20069;-62
2022/09/24 07:41:50;;;;;;;36.63;32.50;;;;;;;-146.58;100.00;69501.63;4991839;28;20385;-61
2022/09/24 07:44:18;;;;;;;43.97;32.65;;;;;;;-146.58;100.00;69501.63;4990130;28;20497;-61
2022/09/24 07:46:46;;;;;;;40.17;31.27;;;;;;;-146.58;100.00;69501.63;4991399;28;20026;-61
2022/09/24 07:49:11;;;;;;;37.08;29.80;;;;;;;-146.58;100.00;69501.63;4989416;28;20121;-59
2022/09/24 07:51:36;;;;;;;36.95;28.40;;;;;;;-146.58;100.00;69501.63;4990326;28;20508;-60
2022/09/24 07:54:02;;;;;;;38.90;29.92;;;;;;;-146.58;100.00;69501.63;4989321;28;20043;-59
2022/09/24 07:56:27;;;;;;;35.45;29.50;;;;;;;-146.58;100.00;69501.63;4991677;28;20072;-60
2022/09/24 07:58:53;;;;;;;32.20;26.70;;;;;;;-146.58;100.00;69501.63;4989655;28;20520;-60
2022/09/24 08:01:18;;;;;;;29.63;25.63;;;;;;;-146.58;100.00;69501.63;4990077;28;20030;-59
2022/09/24 08:03:45;;;;;;;31.45;27.35;;;;;;;-146.58;100.00;69501.63;4988922;28;20056;-60
2022/09/24 08:06:11;;;;;;;33.67;26.88;;;;;;;-146.58;100.00;69501.63;4991063;28;20027;-61
2022/09/24 08:08:37;;;;;;;30.45;24.73;;;;;;;-146.58;100.00;69501.63;4989667;28;20532;-62
2022/09/24 08:11:05;;;;;;;30.98;25.83;;;;;;;-146.58;100.00;69501.63;4987527;28;20078;-61
2022/09/24 08:13:32;;;;;;;30.15;25.55;;;;;;;-146.58;100.00;69501.63;4993216;28;20050;-61
2022/09/24 08:16:00;;;;;;;32.08;24.73;;;;;;;-146.58;100.00;69501.63;5010230;28;20496;-61
2022/09/24 08:18:27;;;;;;;26.63;22.52;;;;;;;-146.58;100.00;69501.63;4990300;28;20058;-62
2022/09/24 08:20:53;;;;;;;28.55;23.85;;;;;;;-146.58;100.00;69501.63;4991121;28;20030;-60
2022/09/24 08:23:19;;;;;;;30.83;22.88;;;;;;;-146.58;100.00;69501.63;4990569;28;20497;-60
2022/09/24 08:25:45;;;;;;;32.55;22.83;;;;;;;-146.58;100.00;69501.63;4989646;28;20077;-60
2022/09/24 08:28:11;;;;;;;24.55;21.83;;;;;;;-146.58;100.00;69501.63;4990812;28;20030;-60
2022/09/24 08:30:38;;;;;;;31.33;20.55;;;;;;;-146.58;100.00;69501.63;4989173;28;20794;-60
2022/09/24 08:33:06;;;;;;;22.27;19.50;;;;;;;-146.58;100.00;69501.63;4990893;28;20528;-60
2022/09/24 08:35:33;;;;;;;30.60;20.10;;;;;;;-146.58;100.00;69501.63;4989633;28;20042;-60
2022/09/24 08:38:00;;;;;;;25.40;20.77;;;;;;;-146.58;100.00;69501.63;4990195;28;20397;-60
2022/09/24 08:40:29;;;;;;;22.08;19.33;;;;;;;-146.58;100.00;69501.63;4989487;28;20497;-60
2022/09/24 08:43:28;;;;;;;28.00;21.90;;;;;;;-146.58;100.00;69501.63;4991222;28;20031;-60
2022/09/24 08:48:45;;;;;;;21.92;19.67;;;;;;;-146.58;100.00;69501.63;4976599;28;20065;-61
2022/09/24 08:51:19;;;;;;;26.35;19.10;;;;;;;-146.58;100.00;69501.63;4994140;28;20030;-61
2022/09/24 08:54:03;;;;;;;20.33;17.55;;;;;;;-146.58;100.00;69501.63;4992631;28;20105;-60
2022/09/24 08:56:36;;;;;;;20.65;17.00;;;;;;;-146.58;100.00;69501.63;4994874;28;20462;-60
2022/09/24 08:59:13;;;;;;;19.05;17.00;;;;;;;-146.58;100.00;69501.63;4992741;28;20046;-60
2022/09/24 09:01:50;;;;;;;18.00;15.60;;;;;;;-146.58;100.00;69501.63;4994046;28;20030;-61
2022/09/24 09:04:53;;;;;;;21.08;15.93;;;;;;;-146.58;100.00;69501.63;4992256;28;20038;-61
2022/09/24 09:07:28;;;;;;;19.90;17.73;;;;;;;-146.58;100.00;69501.63;4993673;28;20426;-61
2022/09/24 09:10:17;;;;;;;20.17;17.30;;;;;;;-146.58;100.00;69501.63;4992884;28;20053;-60
2022/09/24 09:12:47;;;;;;;17.88;15.77;;;;;;;-146.58;100.00;69501.63;4994478;28;20018;-59
2022/09/24 09:15:20;;;;;;;17.77;15.93;;;;;;;-146.58;100.00;69501.63;4992344;28;20046;-59
2022/09/24 09:17:51;;;;;;;18.50;15.13;;;;;;;-146.58;100.00;69501.63;4993474;28;20525;-59
2022/09/24 09:20:22;;;;;;;18.90;16.35;;;;;;;-146.58;100.00;69501.63;4992006;28;20054;-59
2022/09/24 09:22:49;;;;;;;17.40;15.20;;;;;;;-146.58;100.00;69501.63;4993613;28;20109;-59
2022/09/24 09:25:24;;;;;;;19.30;16.83;;;;;;;-146.58;100.00;69501.63;4992402;28;20069;-59
2022/09/24 09:28:00;;;;;;;15.38;13.82;;;;;;;-146.58;100.00;69501.63;4993812;28;20437;-57
2022/09/24 09:30:32;;;;;;;16.15;14.40;;;;;;;-146.58;100.00;69501.63;4992023;28;20051;-59
2022/09/24 09:33:58;;;;;;;19.65;13.13;;;;;;;-146.58;100.00;69501.63;4993740;28;20101;-59
2022/09/24 09:36:34;;;;;;;15.73;13.73;;;;;;;-146.58;100.00;69501.63;4970084;28;20094;-59
2022/09/24 09:39:16;;;;;;;18.35;14.75;;;;;;;-146.58;100.00;69501.63;4970101;28;20066;-59
2022/09/24 09:42:07;;;;;;;16.77;12.25;;;;;;;-146.58;100.00;69501.63;4989453;28;20046;-59
2022/09/24 09:44:40;;;;;;;17.30;13.98;;;;;;;-146.58;100.00;69501.63;4991906;28;20438;-58
2022/09/24 09:47:18;;;;;;;16.23;13.50;;;;;;;-146.58;100.00;69501.63;4993186;28;20105;-59
2022/09/24 09:49:46;;;;;;;16.48;13.57;;;;;;;-146.58;100.00;69501.63;4992152;28;20046;-58
2022/09/24 09:52:20;;;;;;;17.30;12.90;;;;;;;-146.58;100.00;69501.63;4992925;28;20019;-59
2022/09/24 09:54:46;;;;;;;13.35;10.80;;;;;;;-146.58;100.00;69501.63;4992202;28;20049;-59
2022/09/24 09:57:19;;;;;;;14.85;12.65;;;;;;;-146.58;100.00;69501.63;4992727;28;20034;-59
2022/09/24 09:59:47;;;;;;;12.32;11.02;;;;;;;-146.58;100.00;69501.63;4991764;28;20057;-59
2022/09/24 10:02:24;;;;;;;16.25;12.95;;;;;;;-146.58;100.00;69501.63;4993313;28;20018;-59
2022/09/24 10:05:19;;;;;;;19.05;11.40;;;;;;;-146.58;100.00;69501.63;4992140;28;20097;-59
2022/09/24 10:07:44;;;;;;;13.95;9.98;;;;;;;-146.58;100.00;69501.63;4993363;28;20030;-59
2022/09/24 10:10:24;;;;;;;13.00;11.70;;;;;;;-146.58;100.00;69501.63;4991801;28;20101;-59
2022/09/24 10:13:08;;;;;;;12.25;10.95;;;;;;;-146.58;100.00;69501.63;4993688;28;20022;-59
2022/09/24 10:15:47;;;;;;;11.88;10.77;;;;;;;-146.58;100.00;69501.63;4990724;28;20042;-59
2022/09/24 10:18:13;;;;;;;11.55;10.18;;;;;;;-146.58;100.00;69501.63;4991644;28;20022;-59
2022/09/24 10:20:38;;;;;;;13.85;11.18;;;;;;;-146.58;100.00;69501.63;4990216;28;20073;-58
2022/09/24 10:23:11;;;;;;;12.90;11.45;;;;;;;-146.58;100.00;69501.63;4992672;28;20033;-59
2022/09/24 10:25:37;;;;;;;12.73;11.43;;;;;;;-146.58;100.00;69501.63;4991805;28;20182;-59
2022/09/24 10:31:02;;;;;;;10.93;9.82;;;;;;;-146.58;100.00;69501.63;4991762;28;20073;-58
2022/09/24 10:33:36;;;;;;;12.32;11.10;;;;;;;-146.58;100.00;69501.63;4991660;28;20033;-59
2022/09/24 10:36:05;;;;;;;11.32;9.50;;;;;;;-146.58;100.00;69501.63;4992407;28;20046;-59
2022/09/24 10:38:31;;;;;;;13.15;10.50;;;;;;;-146.58;100.00;69501.63;4990889;28;20057;-59
2022/09/24 10:40:58;;;;;;;11.18;10.07;;;;;;;-146.58;100.00;69501.63;4992675;28;20034;-58
2022/09/24 10:43:23;;;;;;;15.52;10.80;;;;;;;-146.58;100.00;69501.63;4991255;28;20414;-58
2022/09/24 10:46:04;;;;;;;17.40;12.43;;;;;;;-146.58;100.00;69501.63;5006530;28;20029;-59
2022/09/24 10:48:32;;;;;;;15.90;12.07;;;;;;;-146.58;100.00;69501.63;4990748;28;20085;-58
2022/09/24 10:51:10;;;;;;;14.02;12.35;;;;;;;-146.58;100.00;69501.63;4992262;28;20543;-58
2022/09/24 10:53:52;;;;;;;14.82;11.25;;;;;;;-146.58;100.00;69501.63;4990768;28;20073;-58
2022/09/24 10:56:38;;;;;;;13.98;12.48;;;;;;;-146.58;100.00;69501.63;4992556;28;20168;-59
2022/09/24 10:59:44;;;;;;;15.20;13.57;;;;;;;-146.58;100.00;69501.63;4990521;28;20104;-59
2022/09/24 11:02:12;;;;;;;14.40;12.30;;;;;;;-146.58;100.00;69501.63;4992577;28;20050;-58
2022/09/24 11:04:48;;;;;;;12.25;10.85;;;;;;;-146.58;100.00;69501.63;4991000;28;20041;-58
2022/09/24 11:07:33;;;;;;;13.50;12.20;;;;;;;-146.58;100.00;69501.63;4991782;28;20493;-59
2022/09/24 11:10:17;;;;;;;14.07;12.45;;;;;;;-146.58;100.00;69501.63;4989789;28;20042;-59
2022/09/24 11:13:06;;;;;;;15.02;11.85;;;;;;;-146.58;100.00;69501.63;4991822;28;20495;-59
2022/09/24 11:15:40;;;;;;;16.70;13.23;;;;;;;-146.58;100.00;69501.63;4990983;28;20054;-59